sensor_id;sensor_type;location;lat;lon;timestamp;P1;durP1;ratioP1;P2;durP2;ratioP2
25111;SDS011;13092;51.996;4.458;2022-11-11T00:01:13;43.92;;;39.83;;
25111;SDS011;13092;51.996;4.458;2022-11-11T00:03:44;44.92;;;40.72;;
25111;SDS011;13092;51.996;4.458;2022-11-11T00:06:15;44.60;;;40.63;;
25111;SDS011;13092;51.996;4.458;2022-11-11T00:08:45;44.80;;;40.63;;
25111;SDS011;13092;51.996;4.458;2022-11-11T00:11:14;44.17;;;40.42;;
25111;SDS011;13092;51.996;4.458;2022-11-11T00:13:43;44.58;;;40.78;;
25111;SDS011;13092;51.996;4.458;2022-11-11T00:16:12;43.55;;;39.60;;
25111;SDS011;13092;51.996;4.458;2022-11-11T00:18:42;43.40;;;39.10;;
25111;SDS011;13092;51.996;4.458;2022-11-11T00:21:29;44.95;;;40.97;;
25111;SDS011;13092;51.996;4.458;2022-11-11T00:24:20;43.90;;;39.90;;
25111;SDS011;13092;51.996;4.458;2022-11-11T00:27:07;43.67;;;39.83;;
25111;SDS011;13092;51.996;4.458;2022-11-11T00:29:37;43.75;;;39.85;;
25111;SDS011;13092;51.996;4.458;2022-11-11T00:32:06;44.58;;;40.35;;
25111;SDS011;13092;51.996;4.458;2022-11-11T00:34:53;45.40;;;41.30;;
25111;SDS011;13092;51.996;4.458;2022-11-11T00:37:41;44.72;;;40.47;;
25111;SDS011;13092;51.996;4.458;2022-11-11T00:40:11;45.33;;;41.00;;
25111;SDS011;13092;51.996;4.458;2022-11-11T00:42:40;45.10;;;41.25;;
25111;SDS011;13092;51.996;4.458;2022-11-11T00:45:09;45.40;;;41.10;;
25111;SDS011;13092;51.996;4.458;2022-11-11T00:47:37;44.80;;;40.60;;
25111;SDS011;13092;51.996;4.458;2022-11-11T00:50:23;46.22;;;41.78;;
25111;SDS011;13092;51.996;4.458;2022-11-11T00:53:12;46.17;;;41.78;;
25111;SDS011;13092;51.996;4.458;2022-11-11T00:55:45;46.65;;;42.38;;
25111;SDS011;13092;51.996;4.458;2022-11-11T00:58:13;46.05;;;41.88;;
25111;SDS011;13092;51.996;4.458;2022-11-11T01:00:42;46.10;;;41.58;;
25111;SDS011;13092;51.996;4.458;2022-11-11T01:03:10;44.70;;;40.63;;
25111;SDS011;13092;51.996;4.458;2022-11-11T01:05:38;44.60;;;40.60;;
25111;SDS011;13092;51.996;4.458;2022-11-11T01:08:06;45.67;;;41.47;;
25111;SDS011;13092;51.996;4.458;2022-11-11T01:10:36;44.67;;;40.40;;
25111;SDS011;13092;51.996;4.458;2022-11-11T01:13:05;45.45;;;41.22;;
25111;SDS011;13092;51.996;4.458;2022-11-11T01:15:39;45.95;;;41.58;;
25111;SDS011;13092;51.996;4.458;2022-11-11T01:18:09;45.22;;;40.95;;
25111;SDS011;13092;51.996;4.458;2022-11-11T01:20:38;46.83;;;42.20;;
25111;SDS011;13092;51.996;4.458;2022-11-11T01:23:07;45.75;;;41.35;;
25111;SDS011;13092;51.996;4.458;2022-11-11T01:25:39;46.35;;;41.85;;
25111;SDS011;13092;51.996;4.458;2022-11-11T01:28:08;45.95;;;41.67;;
25111;SDS011;13092;51.996;4.458;2022-11-11T01:30:36;45.83;;;41.50;;
25111;SDS011;13092;51.996;4.458;2022-11-11T01:33:04;48.63;;;41.90;;
25111;SDS011;13092;51.996;4.458;2022-11-11T01:35:36;47.35;;;42.65;;
25111;SDS011;13092;51.996;4.458;2022-11-11T01:38:06;45.53;;;41.08;;
25111;SDS011;13092;51.996;4.458;2022-11-11T01:40:45;46.45;;;42.15;;
25111;SDS011;13092;51.996;4.458;2022-11-11T01:43:19;46.20;;;41.72;;
25111;SDS011;13092;51.996;4.458;2022-11-11T01:45:52;47.85;;;43.08;;
25111;SDS011;13092;51.996;4.458;2022-11-11T01:48:28;46.35;;;41.80;;
25111;SDS011;13092;51.996;4.458;2022-11-11T01:51:20;46.75;;;42.08;;
25111;SDS011;13092;51.996;4.458;2022-11-11T01:53:55;48.05;;;43.17;;
25111;SDS011;13092;51.996;4.458;2022-11-11T01:56:30;46.42;;;41.83;;
25111;SDS011;13092;51.996;4.458;2022-11-11T01:58:59;45.97;;;41.63;;
25111;SDS011;13092;51.996;4.458;2022-11-11T02:01:30;46.17;;;41.88;;
25111;SDS011;13092;51.996;4.458;2022-11-11T02:03:59;45.72;;;41.63;;
25111;SDS011;13092;51.996;4.458;2022-11-11T02:06:45;46.03;;;41.67;;
25111;SDS011;13092;51.996;4.458;2022-11-11T02:09:15;47.08;;;42.15;;
25111;SDS011;13092;51.996;4.458;2022-11-11T02:11:44;45.67;;;41.15;;
25111;SDS011;13092;51.996;4.458;2022-11-11T02:14:38;46.28;;;41.75;;
25111;SDS011;13092;51.996;4.458;2022-11-11T02:17:09;47.58;;;42.78;;
25111;SDS011;13092;51.996;4.458;2022-11-11T02:19:42;47.63;;;42.53;;
25111;SDS011;13092;51.996;4.458;2022-11-11T02:22:21;46.13;;;41.67;;
25111;SDS011;13092;51.996;4.458;2022-11-11T02:24:55;49.08;;;44.13;;
25111;SDS011;13092;51.996;4.458;2022-11-11T02:27:24;48.22;;;43.47;;
25111;SDS011;13092;51.996;4.458;2022-11-11T02:29:54;50.05;;;45.00;;
25111;SDS011;13092;51.996;4.458;2022-11-11T02:32:24;48.08;;;43.33;;
25111;SDS011;13092;51.996;4.458;2022-11-11T02:34:53;48.03;;;43.15;;
25111;SDS011;13092;51.996;4.458;2022-11-11T02:37:23;47.70;;;42.95;;
25111;SDS011;13092;51.996;4.458;2022-11-11T02:39:56;48.13;;;43.28;;
25111;SDS011;13092;51.996;4.458;2022-11-11T02:42:30;49.72;;;44.55;;
25111;SDS011;13092;51.996;4.458;2022-11-11T02:45:03;49.85;;;44.70;;
25111;SDS011;13092;51.996;4.458;2022-11-11T02:47:34;49.28;;;44.13;;
25111;SDS011;13092;51.996;4.458;2022-11-11T02:50:02;50.15;;;44.92;;
25111;SDS011;13092;51.996;4.458;2022-11-11T02:52:31;53.78;;;44.42;;
25111;SDS011;13092;51.996;4.458;2022-11-11T02:55:01;48.63;;;43.60;;
25111;SDS011;13092;51.996;4.458;2022-11-11T02:57:29;50.33;;;44.83;;
25111;SDS011;13092;51.996;4.458;2022-11-11T02:59:58;50.22;;;45.15;;
25111;SDS011;13092;51.996;4.458;2022-11-11T03:02:27;49.88;;;44.45;;
25111;SDS011;13092;51.996;4.458;2022-11-11T03:04:56;51.03;;;45.55;;
25111;SDS011;13092;51.996;4.458;2022-11-11T03:07:24;50.47;;;45.45;;
25111;SDS011;13092;51.996;4.458;2022-11-11T03:09:53;48.92;;;43.63;;
25111;SDS011;13092;51.996;4.458;2022-11-11T03:12:22;46.22;;;41.60;;
25111;SDS011;13092;51.996;4.458;2022-11-11T03:14:50;46.15;;;41.47;;
25111;SDS011;13092;51.996;4.458;2022-11-11T03:17:20;47.20;;;42.55;;
25111;SDS011;13092;51.996;4.458;2022-11-11T03:20:05;46.10;;;41.33;;
25111;SDS011;13092;51.996;4.458;2022-11-11T03:22:59;46.83;;;42.03;;
25111;SDS011;13092;51.996;4.458;2022-11-11T03:25:28;48.10;;;43.35;;
25111;SDS011;13092;51.996;4.458;2022-11-11T03:28:08;47.20;;;42.05;;
25111;SDS011;13092;51.996;4.458;2022-11-11T03:30:38;48.25;;;43.08;;
25111;SDS011;13092;51.996;4.458;2022-11-11T03:33:07;47.92;;;42.83;;
25111;SDS011;13092;51.996;4.458;2022-11-11T03:35:35;48.42;;;42.65;;
25111;SDS011;13092;51.996;4.458;2022-11-11T03:38:04;47.58;;;41.83;;
25111;SDS011;13092;51.996;4.458;2022-11-11T03:40:49;46.97;;;42.42;;
25111;SDS011;13092;51.996;4.458;2022-11-11T03:43:19;46.45;;;41.50;;
25111;SDS011;13092;51.996;4.458;2022-11-11T03:45:49;46.58;;;42.05;;
25111;SDS011;13092;51.996;4.458;2022-11-11T03:48:18;46.85;;;41.92;;
25111;SDS011;13092;51.996;4.458;2022-11-11T03:50:46;45.15;;;40.50;;
25111;SDS011;13092;51.996;4.458;2022-11-11T03:53:15;47.17;;;41.97;;
25111;SDS011;13092;51.996;4.458;2022-11-11T03:55:46;45.17;;;40.70;;
25111;SDS011;13092;51.996;4.458;2022-11-11T03:58:17;45.00;;;40.50;;
25111;SDS011;13092;51.996;4.458;2022-11-11T04:00:46;45.65;;;41.08;;
25111;SDS011;13092;51.996;4.458;2022-11-11T04:03:15;45.35;;;40.95;;
25111;SDS011;13092;51.996;4.458;2022-11-11T04:06:02;45.13;;;40.13;;
25111;SDS011;13092;51.996;4.458;2022-11-11T04:08:44;46.83;;;41.88;;
25111;SDS011;13092;51.996;4.458;2022-11-11T04:11:29;45.63;;;40.92;;
25111;SDS011;13092;51.996;4.458;2022-11-11T04:13:59;43.85;;;39.33;;
25111;SDS011;13092;51.996;4.458;2022-11-11T04:17:03;45.58;;;41.08;;
25111;SDS011;13092;51.996;4.458;2022-11-11T04:19:31;46.22;;;41.40;;
25111;SDS011;13092;51.996;4.458;2022-11-11T04:22:16;46.03;;;41.42;;
25111;SDS011;13092;51.996;4.458;2022-11-11T04:24:47;47.13;;;42.10;;
25111;SDS011;13092;51.996;4.458;2022-11-11T04:27:33;48.05;;;40.95;;
25111;SDS011;13092;51.996;4.458;2022-11-11T04:30:04;47.92;;;42.92;;
25111;SDS011;13092;51.996;4.458;2022-11-11T04:32:34;47.67;;;42.67;;
25111;SDS011;13092;51.996;4.458;2022-11-11T04:35:05;49.05;;;42.58;;
25111;SDS011;13092;51.996;4.458;2022-11-11T04:37:35;50.03;;;44.67;;
25111;SDS011;13092;51.996;4.458;2022-11-11T04:40:10;49.92;;;44.47;;
25111;SDS011;13092;51.996;4.458;2022-11-11T04:42:56;48.78;;;43.33;;
25111;SDS011;13092;51.996;4.458;2022-11-11T04:45:24;46.85;;;42.03;;
25111;SDS011;13092;51.996;4.458;2022-11-11T04:47:56;44.00;;;39.47;;
25111;SDS011;13092;51.996;4.458;2022-11-11T04:50:25;45.33;;;40.90;;
25111;SDS011;13092;51.996;4.458;2022-11-11T04:52:54;44.50;;;39.92;;
25111;SDS011;13092;51.996;4.458;2022-11-11T04:55:23;44.30;;;39.78;;
25111;SDS011;13092;51.996;4.458;2022-11-11T04:58:09;45.35;;;40.58;;
25111;SDS011;13092;51.996;4.458;2022-11-11T05:00:37;44.65;;;40.33;;
25111;SDS011;13092;51.996;4.458;2022-11-11T05:03:10;45.05;;;40.35;;
25111;SDS011;13092;51.996;4.458;2022-11-11T05:05:41;45.13;;;40.20;;
25111;SDS011;13092;51.996;4.458;2022-11-11T05:08:27;45.20;;;40.72;;
25111;SDS011;13092;51.996;4.458;2022-11-11T05:11:12;44.63;;;40.15;;
25111;SDS011;13092;51.996;4.458;2022-11-11T05:13:40;45.72;;;41.22;;
25111;SDS011;13092;51.996;4.458;2022-11-11T05:16:27;44.60;;;40.13;;
25111;SDS011;13092;51.996;4.458;2022-11-11T05:19:16;44.22;;;39.72;;
25111;SDS011;13092;51.996;4.458;2022-11-11T05:22:04;44.03;;;39.53;;
25111;SDS011;13092;51.996;4.458;2022-11-11T05:24:35;42.00;;;38.03;;
25111;SDS011;13092;51.996;4.458;2022-11-11T05:27:21;44.90;;;40.20;;
25111;SDS011;13092;51.996;4.458;2022-11-11T05:29:49;46.10;;;41.25;;
25111;SDS011;13092;51.996;4.458;2022-11-11T05:32:17;44.63;;;39.80;;
25111;SDS011;13092;51.996;4.458;2022-11-11T05:34:50;45.55;;;39.65;;
25111;SDS011;13092;51.996;4.458;2022-11-11T05:37:18;43.25;;;38.78;;
25111;SDS011;13092;51.996;4.458;2022-11-11T05:39:47;43.92;;;39.33;;
25111;SDS011;13092;51.996;4.458;2022-11-11T05:42:16;43.15;;;38.70;;
25111;SDS011;13092;51.996;4.458;2022-11-11T05:44:44;44.47;;;39.58;;
25111;SDS011;13092;51.996;4.458;2022-11-11T05:47:12;45.08;;;39.67;;
25111;SDS011;13092;51.996;4.458;2022-11-11T05:49:40;45.00;;;40.20;;
25111;SDS011;13092;51.996;4.458;2022-11-11T05:52:10;44.03;;;39.47;;
25111;SDS011;13092;51.996;4.458;2022-11-11T05:54:39;43.67;;;39.17;;
25111;SDS011;13092;51.996;4.458;2022-11-11T05:57:07;45.00;;;40.03;;
25111;SDS011;13092;51.996;4.458;2022-11-11T05:59:35;42.45;;;38.05;;
25111;SDS011;13092;51.996;4.458;2022-11-11T06:02:07;41.70;;;37.33;;
25111;SDS011;13092;51.996;4.458;2022-11-11T06:04:36;41.65;;;37.40;;
25111;SDS011;13092;51.996;4.458;2022-11-11T06:07:04;42.28;;;37.97;;
25111;SDS011;13092;51.996;4.458;2022-11-11T06:09:33;40.40;;;35.95;;
25111;SDS011;13092;51.996;4.458;2022-11-11T06:12:01;39.47;;;35.42;;
25111;SDS011;13092;51.996;4.458;2022-11-11T06:14:30;38.65;;;35.08;;
25111;SDS011;13092;51.996;4.458;2022-11-11T06:16:58;39.10;;;35.10;;
25111;SDS011;13092;51.996;4.458;2022-11-11T06:19:26;39.95;;;35.90;;
25111;SDS011;13092;51.996;4.458;2022-11-11T06:21:54;37.95;;;34.17;;
25111;SDS011;13092;51.996;4.458;2022-11-11T06:24:26;39.55;;;35.42;;
25111;SDS011;13092;51.996;4.458;2022-11-11T06:26:55;39.38;;;35.50;;
25111;SDS011;13092;51.996;4.458;2022-11-11T06:29:23;38.90;;;34.95;;
25111;SDS011;13092;51.996;4.458;2022-11-11T06:31:51;38.75;;;34.70;;
25111;SDS011;13092;51.996;4.458;2022-11-11T06:34:19;39.53;;;35.45;;
25111;SDS011;13092;51.996;4.458;2022-11-11T06:36:47;38.80;;;35.00;;
25111;SDS011;13092;51.996;4.458;2022-11-11T06:39:16;40.17;;;35.63;;
25111;SDS011;13092;51.996;4.458;2022-11-11T06:41:44;40.20;;;36.17;;
25111;SDS011;13092;51.996;4.458;2022-11-11T06:44:13;39.78;;;35.78;;
25111;SDS011;13092;51.996;4.458;2022-11-11T06:46:41;40.15;;;36.08;;
25111;SDS011;13092;51.996;4.458;2022-11-11T06:49:09;39.42;;;35.65;;
25111;SDS011;13092;51.996;4.458;2022-11-11T06:51:37;40.47;;;36.35;;
25111;SDS011;13092;51.996;4.458;2022-11-11T06:54:05;39.92;;;35.65;;
25111;SDS011;13092;51.996;4.458;2022-11-11T06:56:33;38.72;;;34.95;;
25111;SDS011;13092;51.996;4.458;2022-11-11T06:59:01;39.20;;;35.25;;
25111;SDS011;13092;51.996;4.458;2022-11-11T07:01:31;38.78;;;35.00;;
25111;SDS011;13092;51.996;4.458;2022-11-11T07:03:59;38.67;;;34.67;;
25111;SDS011;13092;51.996;4.458;2022-11-11T07:06:29;40.65;;;36.72;;
25111;SDS011;13092;51.996;4.458;2022-11-11T07:08:57;39.70;;;35.88;;
25111;SDS011;13092;51.996;4.458;2022-11-11T07:11:25;40.58;;;36.55;;
25111;SDS011;13092;51.996;4.458;2022-11-11T07:13:54;39.47;;;35.65;;
25111;SDS011;13092;51.996;4.458;2022-11-11T07:16:23;39.85;;;35.78;;
25111;SDS011;13092;51.996;4.458;2022-11-11T07:18:53;40.17;;;36.35;;
25111;SDS011;13092;51.996;4.458;2022-11-11T07:21:21;41.85;;;36.65;;
25111;SDS011;13092;51.996;4.458;2022-11-11T07:23:49;40.88;;;36.72;;
25111;SDS011;13092;51.996;4.458;2022-11-11T07:26:20;39.03;;;35.25;;
25111;SDS011;13092;51.996;4.458;2022-11-11T07:28:48;39.90;;;36.05;;
25111;SDS011;13092;51.996;4.458;2022-11-11T07:31:16;40.00;;;35.80;;
25111;SDS011;13092;51.996;4.458;2022-11-11T07:33:44;39.60;;;35.70;;
25111;SDS011;13092;51.996;4.458;2022-11-11T07:36:13;40.42;;;36.35;;
25111;SDS011;13092;51.996;4.458;2022-11-11T07:38:41;39.28;;;35.33;;
25111;SDS011;13092;51.996;4.458;2022-11-11T07:41:09;42.03;;;37.65;;
25111;SDS011;13092;51.996;4.458;2022-11-11T07:43:37;40.75;;;36.75;;
25111;SDS011;13092;51.996;4.458;2022-11-11T07:46:05;40.20;;;36.35;;
25111;SDS011;13092;51.996;4.458;2022-11-11T07:48:33;38.92;;;35.25;;
25111;SDS011;13092;51.996;4.458;2022-11-11T07:51:01;39.95;;;35.95;;
25111;SDS011;13092;51.996;4.458;2022-11-11T07:53:31;40.58;;;36.55;;
25111;SDS011;13092;51.996;4.458;2022-11-11T07:55:59;40.33;;;36.53;;
25111;SDS011;13092;51.996;4.458;2022-11-11T07:58:29;41.10;;;36.97;;
25111;SDS011;13092;51.996;4.458;2022-11-11T08:00:58;41.78;;;37.70;;
25111;SDS011;13092;51.996;4.458;2022-11-11T08:03:32;41.75;;;37.55;;
25111;SDS011;13092;51.996;4.458;2022-11-11T08:06:00;39.38;;;35.67;;
25111;SDS011;13092;51.996;4.458;2022-11-11T08:08:30;40.40;;;36.63;;
25111;SDS011;13092;51.996;4.458;2022-11-11T08:10:58;42.17;;;38.08;;
25111;SDS011;13092;51.996;4.458;2022-11-11T08:13:26;40.97;;;36.83;;
25111;SDS011;13092;51.996;4.458;2022-11-11T08:16:05;43.10;;;38.47;;
25111;SDS011;13092;51.996;4.458;2022-11-11T08:18:33;41.97;;;37.63;;
25111;SDS011;13092;51.996;4.458;2022-11-11T08:21:02;43.80;;;39.47;;
25111;SDS011;13092;51.996;4.458;2022-11-11T08:23:33;45.28;;;40.67;;
25111;SDS011;13092;51.996;4.458;2022-11-11T08:26:21;42.22;;;37.95;;
25111;SDS011;13092;51.996;4.458;2022-11-11T08:28:55;43.30;;;38.60;;
25111;SDS011;13092;51.996;4.458;2022-11-11T08:31:23;44.78;;;40.08;;
25111;SDS011;13092;51.996;4.458;2022-11-11T08:33:51;43.50;;;39.08;;
25111;SDS011;13092;51.996;4.458;2022-11-11T08:36:20;43.15;;;38.53;;
25111;SDS011;13092;51.996;4.458;2022-11-11T08:38:52;45.40;;;40.72;;
25111;SDS011;13092;51.996;4.458;2022-11-11T08:41:20;42.35;;;38.17;;
25111;SDS011;13092;51.996;4.458;2022-11-11T08:43:50;43.75;;;39.30;;
25111;SDS011;13092;51.996;4.458;2022-11-11T08:46:19;44.53;;;39.80;;
25111;SDS011;13092;51.996;4.458;2022-11-11T08:48:48;43.50;;;39.20;;
25111;SDS011;13092;51.996;4.458;2022-11-11T08:51:16;44.85;;;40.38;;
25111;SDS011;13092;51.996;4.458;2022-11-11T08:53:44;45.45;;;40.63;;
25111;SDS011;13092;51.996;4.458;2022-11-11T08:56:13;44.85;;;40.40;;
25111;SDS011;13092;51.996;4.458;2022-11-11T08:58:42;46.78;;;41.80;;
25111;SDS011;13092;51.996;4.458;2022-11-11T09:01:10;44.70;;;40.38;;
25111;SDS011;13092;51.996;4.458;2022-11-11T09:03:41;46.95;;;40.58;;
25111;SDS011;13092;51.996;4.458;2022-11-11T09:06:11;44.40;;;39.90;;
25111;SDS011;13092;51.996;4.458;2022-11-11T09:08:40;43.97;;;39.72;;
25111;SDS011;13092;51.996;4.458;2022-11-11T09:11:11;45.38;;;40.80;;
25111;SDS011;13092;51.996;4.458;2022-11-11T09:13:40;45.05;;;40.55;;
25111;SDS011;13092;51.996;4.458;2022-11-11T09:16:08;46.22;;;41.53;;
25111;SDS011;13092;51.996;4.458;2022-11-11T09:18:36;44.75;;;40.38;;
25111;SDS011;13092;51.996;4.458;2022-11-11T09:21:05;45.42;;;40.88;;
25111;SDS011;13092;51.996;4.458;2022-11-11T09:23:33;45.50;;;41.05;;
25111;SDS011;13092;51.996;4.458;2022-11-11T09:26:04;44.53;;;40.22;;
25111;SDS011;13092;51.996;4.458;2022-11-11T09:28:33;44.33;;;39.97;;
25111;SDS011;13092;51.996;4.458;2022-11-11T09:31:05;45.15;;;40.78;;
25111;SDS011;13092;51.996;4.458;2022-11-11T09:33:53;44.65;;;40.00;;
25111;SDS011;13092;51.996;4.458;2022-11-11T09:36:21;44.05;;;39.85;;
25111;SDS011;13092;51.996;4.458;2022-11-11T09:38:49;46.03;;;41.53;;
25111;SDS011;13092;51.996;4.458;2022-11-11T09:41:20;44.85;;;40.38;;
25111;SDS011;13092;51.996;4.458;2022-11-11T09:43:54;45.55;;;41.25;;
25111;SDS011;13092;51.996;4.458;2022-11-11T09:46:28;45.45;;;41.13;;
25111;SDS011;13092;51.996;4.458;2022-11-11T09:49:10;45.70;;;41.40;;
25111;SDS011;13092;51.996;4.458;2022-11-11T09:51:53;44.97;;;40.70;;
25111;SDS011;13092;51.996;4.458;2022-11-11T09:54:30;46.53;;;42.03;;
25111;SDS011;13092;51.996;4.458;2022-11-11T09:57:03;44.72;;;40.42;;
25111;SDS011;13092;51.996;4.458;2022-11-11T09:59:39;44.40;;;40.35;;
25111;SDS011;13092;51.996;4.458;2022-11-11T10:02:17;44.85;;;40.53;;
25111;SDS011;13092;51.996;4.458;2022-11-11T10:04:52;44.75;;;40.67;;
25111;SDS011;13092;51.996;4.458;2022-11-11T10:07:30;43.65;;;39.35;;
25111;SDS011;13092;51.996;4.458;2022-11-11T10:10:07;43.13;;;39.33;;
25111;SDS011;13092;51.996;4.458;2022-11-11T10:12:45;42.97;;;38.85;;
25111;SDS011;13092;51.996;4.458;2022-11-11T10:15:16;42.47;;;38.78;;
25111;SDS011;13092;51.996;4.458;2022-11-11T10:17:49;43.60;;;39.60;;
25111;SDS011;13092;51.996;4.458;2022-11-11T10:20:25;42.05;;;38.22;;
25111;SDS011;13092;51.996;4.458;2022-11-11T10:22:58;43.15;;;39.33;;
25111;SDS011;13092;51.996;4.458;2022-11-11T10:25:29;42.95;;;39.00;;
25111;SDS011;13092;51.996;4.458;2022-11-11T10:27:59;42.65;;;38.95;;
25111;SDS011;13092;51.996;4.458;2022-11-11T10:30:29;42.20;;;38.60;;
25111;SDS011;13092;51.996;4.458;2022-11-11T10:33:01;42.38;;;38.60;;
25111;SDS011;13092;51.996;4.458;2022-11-11T10:35:32;43.03;;;39.00;;
25111;SDS011;13092;51.996;4.458;2022-11-11T10:38:10;42.42;;;38.67;;
25111;SDS011;13092;51.996;4.458;2022-11-11T10:40:47;43.33;;;39.58;;
25111;SDS011;13092;51.996;4.458;2022-11-11T10:43:21;43.03;;;39.22;;
25111;SDS011;13092;51.996;4.458;2022-11-11T10:45:51;41.78;;;38.17;;
25111;SDS011;13092;51.996;4.458;2022-11-11T10:48:30;42.10;;;38.42;;
25111;SDS011;13092;51.996;4.458;2022-11-11T10:51:09;42.55;;;38.70;;
25111;SDS011;13092;51.996;4.458;2022-11-11T10:53:40;40.80;;;37.20;;
25111;SDS011;13092;51.996;4.458;2022-11-11T10:56:16;41.38;;;37.78;;
25111;SDS011;13092;51.996;4.458;2022-11-11T10:58:48;42.00;;;38.42;;
25111;SDS011;13092;51.996;4.458;2022-11-11T11:01:33;41.88;;;38.22;;
25111;SDS011;13092;51.996;4.458;2022-11-11T11:07:59;43.20;;;39.50;;
25111;SDS011;13092;51.996;4.458;2022-11-11T11:10:36;42.40;;;38.70;;
25111;SDS011;13092;51.996;4.458;2022-11-11T11:13:11;42.25;;;38.65;;
25111;SDS011;13092;51.996;4.458;2022-11-11T11:15:44;42.53;;;38.65;;
25111;SDS011;13092;51.996;4.458;2022-11-11T11:18:19;41.83;;;38.25;;
25111;SDS011;13092;51.996;4.458;2022-11-11T11:20:55;42.65;;;39.05;;
25111;SDS011;13092;51.996;4.458;2022-11-11T11:23:36;41.40;;;37.90;;
25111;SDS011;13092;51.996;4.458;2022-11-11T11:26:07;40.60;;;37.30;;
25111;SDS011;13092;51.996;4.458;2022-11-11T11:28:51;43.15;;;39.25;;
25111;SDS011;13092;51.996;4.458;2022-11-11T11:31:23;43.45;;;39.47;;
25111;SDS011;13092;51.996;4.458;2022-11-11T11:34:03;42.30;;;38.60;;
25111;SDS011;13092;51.996;4.458;2022-11-11T11:36:32;42.30;;;38.70;;
25111;SDS011;13092;51.996;4.458;2022-11-11T11:39:03;44.45;;;40.55;;
25111;SDS011;13092;51.996;4.458;2022-11-11T11:41:35;44.25;;;40.60;;
25111;SDS011;13092;51.996;4.458;2022-11-11T11:47:01;44.13;;;40.63;;
25111;SDS011;13092;51.996;4.458;2022-11-11T11:49:43;43.80;;;40.00;;
25111;SDS011;13092;51.996;4.458;2022-11-11T11:52:27;42.22;;;38.53;;
25111;SDS011;13092;51.996;4.458;2022-11-11T11:55:11;42.50;;;39.00;;
25111;SDS011;13092;51.996;4.458;2022-11-11T11:57:49;43.40;;;39.95;;
25111;SDS011;13092;51.996;4.458;2022-11-11T12:00:28;41.70;;;38.38;;
25111;SDS011;13092;51.996;4.458;2022-11-11T12:06:03;42.20;;;38.80;;
25111;SDS011;13092;51.996;4.458;2022-11-11T12:08:46;42.03;;;38.38;;
25111;SDS011;13092;51.996;4.458;2022-11-11T12:11:30;41.97;;;38.35;;
25111;SDS011;13092;51.996;4.458;2022-11-11T12:14:21;41.53;;;38.08;;
25111;SDS011;13092;51.996;4.458;2022-11-11T12:17:01;41.25;;;37.80;;
25111;SDS011;13092;51.996;4.458;2022-11-11T12:19:42;41.58;;;38.28;;
25111;SDS011;13092;51.996;4.458;2022-11-11T12:22:25;42.67;;;38.85;;
25111;SDS011;13092;51.996;4.458;2022-11-11T12:25:11;41.17;;;37.85;;
25111;SDS011;13092;51.996;4.458;2022-11-11T12:27:50;41.13;;;37.63;;
25111;SDS011;13092;51.996;4.458;2022-11-11T12:30:29;41.28;;;37.83;;
25111;SDS011;13092;51.996;4.458;2022-11-11T12:36:06;40.85;;;37.35;;
25111;SDS011;13092;51.996;4.458;2022-11-11T12:41:26;40.95;;;37.50;;
25111;SDS011;13092;51.996;4.458;2022-11-11T12:44:08;40.17;;;36.95;;
25111;SDS011;13092;51.996;4.458;2022-11-11T12:46:48;41.17;;;37.88;;
25111;SDS011;13092;51.996;4.458;2022-11-11T12:49:31;40.20;;;36.97;;
25111;SDS011;13092;51.996;4.458;2022-11-11T12:52:15;40.00;;;36.60;;
25111;SDS011;13092;51.996;4.458;2022-11-11T12:55:11;41.95;;;38.30;;
25111;SDS011;13092;51.996;4.458;2022-11-11T12:57:58;41.22;;;38.00;;
25111;SDS011;13092;51.996;4.458;2022-11-11T13:00:39;41.00;;;37.72;;
25111;SDS011;13092;51.996;4.458;2022-11-11T13:06:29;40.00;;;36.80;;
25111;SDS011;13092;51.996;4.458;2022-11-11T13:09:22;40.35;;;37.08;;
25111;SDS011;13092;51.996;4.458;2022-11-11T13:12:12;39.25;;;36.05;;
25111;SDS011;13092;51.996;4.458;2022-11-11T13:14:48;40.58;;;37.50;;
25111;SDS011;13092;51.996;4.458;2022-11-11T13:17:24;38.75;;;35.58;;
25111;SDS011;13092;51.996;4.458;2022-11-11T13:19:53;38.60;;;35.70;;
25111;SDS011;13092;51.996;4.458;2022-11-11T13:22:25;37.25;;;34.33;;
25111;SDS011;13092;51.996;4.458;2022-11-11T13:24:57;38.30;;;35.25;;
25111;SDS011;13092;51.996;4.458;2022-11-11T13:27:35;39.63;;;36.35;;
25111;SDS011;13092;51.996;4.458;2022-11-11T13:30:16;40.08;;;36.78;;
25111;SDS011;13092;51.996;4.458;2022-11-11T13:33:23;38.45;;;35.40;;
25111;SDS011;13092;51.996;4.458;2022-11-11T13:35:56;38.33;;;35.10;;
25111;SDS011;13092;51.996;4.458;2022-11-11T13:38:31;38.35;;;35.63;;
25111;SDS011;13092;51.996;4.458;2022-11-11T13:41:08;39.70;;;36.53;;
25111;SDS011;13092;51.996;4.458;2022-11-11T13:43:39;37.88;;;35.10;;
25111;SDS011;13092;51.996;4.458;2022-11-11T13:46:26;39.67;;;36.35;;
25111;SDS011;13092;51.996;4.458;2022-11-11T13:49:21;37.97;;;35.35;;
25111;SDS011;13092;51.996;4.458;2022-11-11T13:51:57;41.47;;;38.17;;
25111;SDS011;13092;51.996;4.458;2022-11-11T13:54:58;38.42;;;35.72;;
25111;SDS011;13092;51.996;4.458;2022-11-11T13:57:50;38.47;;;35.67;;
25111;SDS011;13092;51.996;4.458;2022-11-11T14:00:36;38.60;;;35.70;;
25111;SDS011;13092;51.996;4.458;2022-11-11T14:10:54;39.17;;;36.13;;
25111;SDS011;13092;51.996;4.458;2022-11-11T14:17:56;38.85;;;35.63;;
25111;SDS011;13092;51.996;4.458;2022-11-11T14:20:32;39.42;;;36.42;;
25111;SDS011;13092;51.996;4.458;2022-11-11T14:26:30;38.28;;;35.47;;
25111;SDS011;13092;51.996;4.458;2022-11-11T14:29:23;37.40;;;34.75;;
25111;SDS011;13092;51.996;4.458;2022-11-11T14:35:05;37.85;;;35.15;;
25111;SDS011;13092;51.996;4.458;2022-11-11T14:40:10;37.92;;;35.15;;
25111;SDS011;13092;51.996;4.458;2022-11-11T14:42:46;38.40;;;35.60;;
25111;SDS011;13092;51.996;4.458;2022-11-11T14:51:50;37.42;;;34.83;;
25111;SDS011;13092;51.996;4.458;2022-11-11T14:54:31;37.47;;;34.53;;
25111;SDS011;13092;51.996;4.458;2022-11-11T14:57:05;36.97;;;34.28;;
25111;SDS011;13092;51.996;4.458;2022-11-11T14:59:41;37.10;;;34.38;;
25111;SDS011;13092;51.996;4.458;2022-11-11T15:02:12;37.35;;;34.67;;
25111;SDS011;13092;51.996;4.458;2022-11-11T15:04:51;38.90;;;35.97;;
25111;SDS011;13092;51.996;4.458;2022-11-11T15:07:21;37.63;;;34.70;;
25111;SDS011;13092;51.996;4.458;2022-11-11T15:10:15;38.67;;;35.38;;
25111;SDS011;13092;51.996;4.458;2022-11-11T15:12:54;38.00;;;35.10;;
25111;SDS011;13092;51.996;4.458;2022-11-11T15:15:44;37.40;;;34.55;;
25111;SDS011;13092;51.996;4.458;2022-11-11T15:18:24;36.63;;;34.05;;
25111;SDS011;13092;51.996;4.458;2022-11-11T15:21:06;38.67;;;35.72;;
25111;SDS011;13092;51.996;4.458;2022-11-11T15:23:37;39.15;;;36.15;;
25111;SDS011;13092;51.996;4.458;2022-11-11T15:26:14;39.75;;;36.65;;
25111;SDS011;13092;51.996;4.458;2022-11-11T15:28:58;39.28;;;36.20;;
25111;SDS011;13092;51.996;4.458;2022-11-11T15:31:40;38.03;;;35.22;;
25111;SDS011;13092;51.996;4.458;2022-11-11T15:34:22;37.92;;;35.22;;
25111;SDS011;13092;51.996;4.458;2022-11-11T15:37:01;38.58;;;35.70;;
25111;SDS011;13092;51.996;4.458;2022-11-11T15:39:35;38.33;;;35.53;;
25111;SDS011;13092;51.996;4.458;2022-11-11T15:42:10;36.90;;;34.33;;
25111;SDS011;13092;51.996;4.458;2022-11-11T15:44:39;37.40;;;34.70;;
25111;SDS011;13092;51.996;4.458;2022-11-11T15:47:12;37.33;;;34.50;;